sensor_id;sensor_type;location;lat;lon;timestamp;P1;durP1;ratioP1;P2;durP2;ratioP2
13250;SDS011;6692;50.710;7.180;2023-05-19T00:00:55;3.40;;;3.10;;
13250;SDS011;6692;50.710;7.180;2023-05-19T00:02:56;3.93;;;3.07;;
13250;SDS011;6692;50.710;7.180;2023-05-19T00:04:57;5.43;;;3.03;;
13250;SDS011;6692;50.710;7.180;2023-05-19T00:06:58;3.77;;;3.03;;
13250;SDS011;6692;50.710;7.180;2023-05-19T00:09:00;3.53;;;3.23;;
13250;SDS011;6692;50.710;7.180;2023-05-19T00:11:00;3.33;;;3.03;;
13250;SDS011;6692;50.710;7.180;2023-05-19T00:13:01;3.20;;;2.90;;
13250;SDS011;6692;50.710;7.180;2023-05-19T00:15:04;4.70;;;3.53;;
13250;SDS011;6692;50.710;7.180;2023-05-19T00:17:06;3.17;;;2.87;;
13250;SDS011;6692;50.710;7.180;2023-05-19T00:19:08;4.03;;;3.20;;
13250;SDS011;6692;50.710;7.180;2023-05-19T00:21:09;4.70;;;3.63;;
13250;SDS011;6692;50.710;7.180;2023-05-19T00:23:10;4.00;;;3.50;;
13250;SDS011;6692;50.710;7.180;2023-05-19T00:25:10;4.17;;;3.10;;
13250;SDS011;6692;50.710;7.180;2023-05-19T00:27:12;4.57;;;3.50;;
13250;SDS011;6692;50.710;7.180;2023-05-19T00:29:13;4.07;;;3.40;;
13250;SDS011;6692;50.710;7.180;2023-05-19T00:31:13;3.73;;;3.37;;
13250;SDS011;6692;50.710;7.180;2023-05-19T00:33:14;3.27;;;2.97;;
13250;SDS011;6692;50.710;7.180;2023-05-19T00:35:15;3.63;;;3.33;;
13250;SDS011;6692;50.710;7.180;2023-05-19T00:37:16;3.37;;;3.07;;
13250;SDS011;6692;50.710;7.180;2023-05-19T00:39:17;3.73;;;3.23;;
13250;SDS011;6692;50.710;7.180;2023-05-19T00:41:18;3.47;;;3.10;;
13250;SDS011;6692;50.710;7.180;2023-05-19T00:43:18;3.90;;;3.23;;
13250;SDS011;6692;50.710;7.180;2023-05-19T00:45:19;4.03;;;2.90;;
13250;SDS011;6692;50.710;7.180;2023-05-19T00:47:19;3.30;;;3.00;;
13250;SDS011;6692;50.710;7.180;2023-05-19T00:49:20;3.47;;;2.80;;
13250;SDS011;6692;50.710;7.180;2023-05-19T00:51:21;4.03;;;2.83;;
13250;SDS011;6692;50.710;7.180;2023-05-19T00:53:22;3.73;;;2.97;;
13250;SDS011;6692;50.710;7.180;2023-05-19T00:55:23;4.07;;;3.10;;
13250;SDS011;6692;50.710;7.180;2023-05-19T00:57:23;3.87;;;3.10;;
13250;SDS011;6692;50.710;7.180;2023-05-19T00:59:23;3.10;;;2.80;;
13250;SDS011;6692;50.710;7.180;2023-05-19T01:01:25;2.77;;;2.53;;
13250;SDS011;6692;50.710;7.180;2023-05-19T01:03:25;3.10;;;2.90;;
13250;SDS011;6692;50.710;7.180;2023-05-19T01:05:27;3.50;;;3.20;;
13250;SDS011;6692;50.710;7.180;2023-05-19T01:07:28;3.23;;;2.93;;
13250;SDS011;6692;50.710;7.180;2023-05-19T01:09:28;3.30;;;3.00;;
13250;SDS011;6692;50.710;7.180;2023-05-19T01:11:29;4.37;;;3.03;;
13250;SDS011;6692;50.710;7.180;2023-05-19T01:13:30;3.40;;;3.10;;
13250;SDS011;6692;50.710;7.180;2023-05-19T01:15:32;3.40;;;3.10;;
13250;SDS011;6692;50.710;7.180;2023-05-19T01:17:41;3.60;;;3.30;;
13250;SDS011;6692;50.710;7.180;2023-05-19T01:19:49;4.43;;;3.53;;
13250;SDS011;6692;50.710;7.180;2023-05-19T01:24:00;5.87;;;3.57;;
13250;SDS011;6692;50.710;7.180;2023-05-19T01:26:10;3.77;;;3.20;;
13250;SDS011;6692;50.710;7.180;2023-05-19T01:28:24;4.13;;;3.73;;
13250;SDS011;6692;50.710;7.180;2023-05-19T01:30:29;4.83;;;3.80;;
13250;SDS011;6692;50.710;7.180;2023-05-19T01:32:29;4.17;;;3.67;;
13250;SDS011;6692;50.710;7.180;2023-05-19T01:34:29;3.80;;;3.40;;
13250;SDS011;6692;50.710;7.180;2023-05-19T01:36:31;4.37;;;3.40;;
13250;SDS011;6692;50.710;7.180;2023-05-19T01:38:31;5.57;;;3.70;;
13250;SDS011;6692;50.710;7.180;2023-05-19T01:40:32;5.47;;;3.37;;
13250;SDS011;6692;50.710;7.180;2023-05-19T01:42:33;4.20;;;3.47;;
13250;SDS011;6692;50.710;7.180;2023-05-19T01:44:34;5.20;;;3.60;;
13250;SDS011;6692;50.710;7.180;2023-05-19T01:46:35;3.53;;;3.23;;
13250;SDS011;6692;50.710;7.180;2023-05-19T01:48:35;7.13;;;3.63;;
13250;SDS011;6692;50.710;7.180;2023-05-19T01:50:36;4.13;;;3.47;;
13250;SDS011;6692;50.710;7.180;2023-05-19T01:52:37;4.17;;;3.43;;
13250;SDS011;6692;50.710;7.180;2023-05-19T01:54:37;4.70;;;3.50;;
13250;SDS011;6692;50.710;7.180;2023-05-19T01:56:42;3.50;;;3.20;;
13250;SDS011;6692;50.710;7.180;2023-05-19T01:58:43;3.80;;;3.50;;
13250;SDS011;6692;50.710;7.180;2023-05-19T02:03:00;3.47;;;3.17;;
13250;SDS011;6692;50.710;7.180;2023-05-19T02:05:06;3.47;;;3.00;;
13250;SDS011;6692;50.710;7.180;2023-05-19T02:07:12;3.47;;;3.17;;
13250;SDS011;6692;50.710;7.180;2023-05-19T02:09:16;4.83;;;3.10;;
13250;SDS011;6692;50.710;7.180;2023-05-19T02:11:18;4.97;;;3.10;;
13250;SDS011;6692;50.710;7.180;2023-05-19T02:13:19;4.13;;;3.10;;
13250;SDS011;6692;50.710;7.180;2023-05-19T02:15:21;3.27;;;2.97;;
13250;SDS011;6692;50.710;7.180;2023-05-19T02:17:21;3.67;;;3.07;;
13250;SDS011;6692;50.710;7.180;2023-05-19T02:19:25;4.10;;;3.03;;
13250;SDS011;6692;50.710;7.180;2023-05-19T02:21:25;3.70;;;3.33;;
13250;SDS011;6692;50.710;7.180;2023-05-19T02:23:25;2.80;;;2.60;;
13250;SDS011;6692;50.710;7.180;2023-05-19T02:25:26;3.07;;;2.83;;
13250;SDS011;6692;50.710;7.180;2023-05-19T02:27:27;3.47;;;3.17;;
13250;SDS011;6692;50.710;7.180;2023-05-19T02:29:27;3.20;;;2.90;;
13250;SDS011;6692;50.710;7.180;2023-05-19T02:31:28;3.53;;;3.23;;
13250;SDS011;6692;50.710;7.180;2023-05-19T02:33:29;5.73;;;3.27;;
13250;SDS011;6692;50.710;7.180;2023-05-19T02:35:29;3.30;;;3.00;;
13250;SDS011;6692;50.710;7.180;2023-05-19T02:37:30;4.00;;;3.20;;
13250;SDS011;6692;50.710;7.180;2023-05-19T02:39:31;4.80;;;2.90;;
13250;SDS011;6692;50.710;7.180;2023-05-19T02:41:32;3.83;;;3.10;;
13250;SDS011;6692;50.710;7.180;2023-05-19T02:43:32;2.93;;;2.70;;
13250;SDS011;6692;50.710;7.180;2023-05-19T02:45:33;4.33;;;3.47;;
13250;SDS011;6692;50.710;7.180;2023-05-19T02:47:34;3.40;;;3.10;;
13250;SDS011;6692;50.710;7.180;2023-05-19T02:49:35;5.60;;;3.43;;
13250;SDS011;6692;50.710;7.180;2023-05-19T02:51:36;3.70;;;3.00;;
13250;SDS011;6692;50.710;7.180;2023-05-19T02:53:36;3.37;;;3.07;;
13250;SDS011;6692;50.710;7.180;2023-05-19T02:55:37;3.60;;;3.30;;
13250;SDS011;6692;50.710;7.180;2023-05-19T02:57:38;3.67;;;3.10;;
13250;SDS011;6692;50.710;7.180;2023-05-19T02:59:38;3.80;;;3.50;;
13250;SDS011;6692;50.710;7.180;2023-05-19T03:01:39;3.60;;;3.30;;
13250;SDS011;6692;50.710;7.180;2023-05-19T03:03:40;4.13;;;3.40;;
13250;SDS011;6692;50.710;7.180;2023-05-19T03:05:41;3.67;;;3.27;;
13250;SDS011;6692;50.710;7.180;2023-05-19T03:07:42;4.90;;;3.27;;
13250;SDS011;6692;50.710;7.180;2023-05-19T03:09:42;4.00;;;3.60;;
13250;SDS011;6692;50.710;7.180;2023-05-19T03:11:43;3.70;;;3.27;;
13250;SDS011;6692;50.710;7.180;2023-05-19T03:13:44;3.97;;;3.60;;
13250;SDS011;6692;50.710;7.180;2023-05-19T03:15:44;4.20;;;3.30;;
13250;SDS011;6692;50.710;7.180;2023-05-19T03:17:45;4.40;;;2.97;;
13250;SDS011;6692;50.710;7.180;2023-05-19T03:19:46;4.37;;;3.27;;
13250;SDS011;6692;50.710;7.180;2023-05-19T03:21:46;3.23;;;3.03;;
13250;SDS011;6692;50.710;7.180;2023-05-19T03:23:47;2.90;;;2.70;;
13250;SDS011;6692;50.710;7.180;2023-05-19T03:25:48;3.27;;;2.97;;
13250;SDS011;6692;50.710;7.180;2023-05-19T03:27:48;4.57;;;3.07;;
13250;SDS011;6692;50.710;7.180;2023-05-19T03:29:49;3.90;;;3.10;;
13250;SDS011;6692;50.710;7.180;2023-05-19T03:31:50;5.27;;;3.30;;
13250;SDS011;6692;50.710;7.180;2023-05-19T03:33:50;5.23;;;3.10;;
13250;SDS011;6692;50.710;7.180;2023-05-19T03:35:52;3.20;;;2.90;;
13250;SDS011;6692;50.710;7.180;2023-05-19T03:37:53;4.40;;;3.07;;
13250;SDS011;6692;50.710;7.180;2023-05-19T03:39:54;3.20;;;2.90;;
13250;SDS011;6692;50.710;7.180;2023-05-19T03:41:54;3.40;;;3.10;;
13250;SDS011;6692;50.710;7.180;2023-05-19T03:43:55;3.40;;;3.10;;
13250;SDS011;6692;50.710;7.180;2023-05-19T03:45:57;3.80;;;3.37;;
13250;SDS011;6692;50.710;7.180;2023-05-19T03:47:57;3.03;;;2.73;;
13250;SDS011;6692;50.710;7.180;2023-05-19T03:49:59;3.40;;;3.10;;
13250;SDS011;6692;50.710;7.180;2023-05-19T03:51:59;3.33;;;3.03;;
13250;SDS011;6692;50.710;7.180;2023-05-19T03:54:00;3.40;;;3.10;;
13250;SDS011;6692;50.710;7.180;2023-05-19T03:56:01;4.17;;;3.77;;
13250;SDS011;6692;50.710;7.180;2023-05-19T03:58:02;4.20;;;3.80;;
13250;SDS011;6692;50.710;7.180;2023-05-19T04:00:04;3.90;;;3.53;;
13250;SDS011;6692;50.710;7.180;2023-05-19T04:02:05;4.20;;;3.63;;
13250;SDS011;6692;50.710;7.180;2023-05-19T04:04:06;3.73;;;3.43;;
13250;SDS011;6692;50.710;7.180;2023-05-19T04:06:07;4.97;;;3.87;;
13250;SDS011;6692;50.710;7.180;2023-05-19T04:08:08;4.10;;;3.70;;
13250;SDS011;6692;50.710;7.180;2023-05-19T04:10:09;4.77;;;4.00;;
13250;SDS011;6692;50.710;7.180;2023-05-19T04:12:10;4.50;;;4.10;;
13250;SDS011;6692;50.710;7.180;2023-05-19T04:14:11;4.80;;;3.73;;
13250;SDS011;6692;50.710;7.180;2023-05-19T04:16:12;4.13;;;3.70;;
13250;SDS011;6692;50.710;7.180;2023-05-19T04:18:13;5.13;;;4.03;;
13250;SDS011;6692;50.710;7.180;2023-05-19T04:20:13;5.07;;;3.73;;
13250;SDS011;6692;50.710;7.180;2023-05-19T04:22:14;4.33;;;3.70;;
13250;SDS011;6692;50.710;7.180;2023-05-19T04:24:15;4.10;;;3.70;;
13250;SDS011;6692;50.710;7.180;2023-05-19T04:26:16;5.03;;;3.70;;
13250;SDS011;6692;50.710;7.180;2023-05-19T04:28:16;3.57;;;3.23;;
13250;SDS011;6692;50.710;7.180;2023-05-19T04:30:17;3.87;;;3.40;;
13250;SDS011;6692;50.710;7.180;2023-05-19T04:32:18;3.73;;;3.33;;
13250;SDS011;6692;50.710;7.180;2023-05-19T04:34:19;4.00;;;3.60;;
13250;SDS011;6692;50.710;7.180;2023-05-19T04:36:20;3.37;;;3.07;;
13250;SDS011;6692;50.710;7.180;2023-05-19T04:38:20;3.87;;;3.40;;
13250;SDS011;6692;50.710;7.180;2023-05-19T04:40:21;3.40;;;3.10;;
13250;SDS011;6692;50.710;7.180;2023-05-19T04:42:22;4.77;;;3.53;;
13250;SDS011;6692;50.710;7.180;2023-05-19T04:44:23;4.53;;;3.50;;
13250;SDS011;6692;50.710;7.180;2023-05-19T04:46:23;3.40;;;3.10;;
13250;SDS011;6692;50.710;7.180;2023-05-19T04:48:24;3.30;;;2.97;;
13250;SDS011;6692;50.710;7.180;2023-05-19T04:50:25;3.50;;;3.20;;
13250;SDS011;6692;50.710;7.180;2023-05-19T04:52:26;3.87;;;3.50;;
13250;SDS011;6692;50.710;7.180;2023-05-19T04:54:27;5.60;;;3.43;;
13250;SDS011;6692;50.710;7.180;2023-05-19T04:56:27;3.00;;;2.80;;
13250;SDS011;6692;50.710;7.180;2023-05-19T04:58:28;3.30;;;3.00;;
13250;SDS011;6692;50.710;7.180;2023-05-19T05:00:29;3.53;;;3.23;;
13250;SDS011;6692;50.710;7.180;2023-05-19T05:02:30;4.33;;;3.10;;
13250;SDS011;6692;50.710;7.180;2023-05-19T05:04:31;3.50;;;3.10;;
13250;SDS011;6692;50.710;7.180;2023-05-19T05:06:32;4.83;;;3.40;;
13250;SDS011;6692;50.710;7.180;2023-05-19T05:08:32;4.33;;;3.53;;
13250;SDS011;6692;50.710;7.180;2023-05-19T05:10:33;5.17;;;3.97;;
13250;SDS011;6692;50.710;7.180;2023-05-19T05:12:34;4.17;;;3.70;;
13250;SDS011;6692;50.710;7.180;2023-05-19T05:14:35;5.37;;;4.00;;
13250;SDS011;6692;50.710;7.180;2023-05-19T05:16:37;4.10;;;3.70;;
13250;SDS011;6692;50.710;7.180;2023-05-19T05:18:38;4.43;;;4.03;;
13250;SDS011;6692;50.710;7.180;2023-05-19T05:20:40;5.47;;;3.67;;
13250;SDS011;6692;50.710;7.180;2023-05-19T05:22:41;4.73;;;4.20;;
13250;SDS011;6692;50.710;7.180;2023-05-19T05:24:42;6.10;;;4.80;;
13250;SDS011;6692;50.710;7.180;2023-05-19T05:26:43;6.90;;;5.37;;
13250;SDS011;6692;50.710;7.180;2023-05-19T05:28:44;5.50;;;5.00;;
13250;SDS011;6692;50.710;7.180;2023-05-19T05:30:44;5.97;;;4.97;;
13250;SDS011;6692;50.710;7.180;2023-05-19T05:32:45;7.40;;;5.30;;
13250;SDS011;6692;50.710;7.180;2023-05-19T05:34:46;6.97;;;5.50;;
13250;SDS011;6692;50.710;7.180;2023-05-19T05:36:47;5.33;;;4.83;;
13250;SDS011;6692;50.710;7.180;2023-05-19T05:38:48;9.53;;;5.60;;
13250;SDS011;6692;50.710;7.180;2023-05-19T05:40:49;6.17;;;5.57;;
13250;SDS011;6692;50.710;7.180;2023-05-19T05:42:50;7.70;;;5.87;;
13250;SDS011;6692;50.710;7.180;2023-05-19T05:44:51;6.23;;;5.63;;
13250;SDS011;6692;50.710;7.180;2023-05-19T05:46:51;6.87;;;5.53;;
13250;SDS011;6692;50.710;7.180;2023-05-19T05:48:53;5.63;;;5.13;;
13250;SDS011;6692;50.710;7.180;2023-05-19T05:50:54;8.57;;;5.80;;
13250;SDS011;6692;50.710;7.180;2023-05-19T05:52:54;8.90;;;6.00;;
13250;SDS011;6692;50.710;7.180;2023-05-19T05:54:55;6.93;;;5.27;;
13250;SDS011;6692;50.710;7.180;2023-05-19T05:56:56;6.50;;;5.90;;
13250;SDS011;6692;50.710;7.180;2023-05-19T05:58:57;6.67;;;6.03;;
13250;SDS011;6692;50.710;7.180;2023-05-19T06:00:59;6.50;;;5.80;;
13250;SDS011;6692;50.710;7.180;2023-05-19T06:02:59;5.97;;;5.37;;
13250;SDS011;6692;50.710;7.180;2023-05-19T06:05:00;6.87;;;5.40;;
13250;SDS011;6692;50.710;7.180;2023-05-19T06:07:01;5.57;;;5.07;;
13250;SDS011;6692;50.710;7.180;2023-05-19T06:09:01;6.00;;;5.37;;
13250;SDS011;6692;50.710;7.180;2023-05-19T06:11:02;6.20;;;5.60;;
13250;SDS011;6692;50.710;7.180;2023-05-19T06:13:08;5.90;;;4.97;;
13250;SDS011;6692;50.710;7.180;2023-05-19T06:15:08;6.57;;;5.87;;
13250;SDS011;6692;50.710;7.180;2023-05-19T06:17:09;5.73;;;5.17;;
13250;SDS011;6692;50.710;7.180;2023-05-19T06:19:10;10.10;;;6.23;;
13250;SDS011;6692;50.710;7.180;2023-05-19T06:21:10;7.00;;;5.03;;
13250;SDS011;6692;50.710;7.180;2023-05-19T06:23:11;5.57;;;5.07;;
13250;SDS011;6692;50.710;7.180;2023-05-19T06:25:12;6.43;;;5.43;;
13250;SDS011;6692;50.710;7.180;2023-05-19T06:27:12;6.93;;;5.70;;
13250;SDS011;6692;50.710;7.180;2023-05-19T06:29:13;6.63;;;5.60;;
13250;SDS011;6692;50.710;7.180;2023-05-19T06:31:14;6.47;;;5.80;;
13250;SDS011;6692;50.710;7.180;2023-05-19T06:33:14;5.93;;;5.33;;
13250;SDS011;6692;50.710;7.180;2023-05-19T06:35:15;6.10;;;5.50;;
13250;SDS011;6692;50.710;7.180;2023-05-19T06:37:17;6.73;;;5.70;;
13250;SDS011;6692;50.710;7.180;2023-05-19T06:39:18;6.40;;;5.77;;
13250;SDS011;6692;50.710;7.180;2023-05-19T06:41:19;5.73;;;5.10;;
13250;SDS011;6692;50.710;7.180;2023-05-19T06:43:19;5.97;;;5.10;;
13250;SDS011;6692;50.710;7.180;2023-05-19T06:45:20;7.37;;;5.97;;
13250;SDS011;6692;50.710;7.180;2023-05-19T06:47:21;8.00;;;5.93;;
13250;SDS011;6692;50.710;7.180;2023-05-19T06:49:22;6.73;;;5.80;;
13250;SDS011;6692;50.710;7.180;2023-05-19T06:51:23;7.20;;;6.00;;
13250;SDS011;6692;50.710;7.180;2023-05-19T06:53:23;8.00;;;6.03;;
13250;SDS011;6692;50.710;7.180;2023-05-19T06:55:24;8.40;;;6.80;;
13250;SDS011;6692;50.710;7.180;2023-05-19T06:57:25;10.43;;;6.60;;
13250;SDS011;6692;50.710;7.180;2023-05-19T06:59:25;11.07;;;6.53;;
13250;SDS011;6692;50.710;7.180;2023-05-19T07:01:26;10.07;;;6.73;;
13250;SDS011;6692;50.710;7.180;2023-05-19T07:03:27;9.30;;;6.47;;
13250;SDS011;6692;50.710;7.180;2023-05-19T07:05:27;9.63;;;5.87;;
13250;SDS011;6692;50.710;7.180;2023-05-19T07:07:28;9.40;;;5.70;;
13250;SDS011;6692;50.710;7.180;2023-05-19T07:09:29;9.50;;;6.27;;
13250;SDS011;6692;50.710;7.180;2023-05-19T07:11:29;8.87;;;6.07;;
13250;SDS011;6692;50.710;7.180;2023-05-19T07:13:30;16.53;;;6.57;;
13250;SDS011;6692;50.710;7.180;2023-05-19T07:15:31;8.17;;;5.57;;
13250;SDS011;6692;50.710;7.180;2023-05-19T07:17:31;8.30;;;4.80;;
13250;SDS011;6692;50.710;7.180;2023-05-19T07:19:32;8.07;;;5.23;;
13250;SDS011;6692;50.710;7.180;2023-05-19T07:21:33;5.77;;;4.63;;
13250;SDS011;6692;50.710;7.180;2023-05-19T07:23:33;9.17;;;4.67;;
13250;SDS011;6692;50.710;7.180;2023-05-19T07:25:35;5.70;;;4.27;;
13250;SDS011;6692;50.710;7.180;2023-05-19T07:27:35;6.20;;;4.77;;
13250;SDS011;6692;50.710;7.180;2023-05-19T07:29:36;5.83;;;4.17;;
13250;SDS011;6692;50.710;7.180;2023-05-19T07:31:37;6.33;;;4.37;;
13250;SDS011;6692;50.710;7.180;2023-05-19T07:33:37;5.60;;;4.10;;
13250;SDS011;6692;50.710;7.180;2023-05-19T07:35:38;5.37;;;3.70;;
13250;SDS011;6692;50.710;7.180;2023-05-19T07:37:39;5.43;;;4.00;;
13250;SDS011;6692;50.710;7.180;2023-05-19T07:39:39;6.93;;;4.27;;
13250;SDS011;6692;50.710;7.180;2023-05-19T07:41:40;6.00;;;4.47;;
13250;SDS011;6692;50.710;7.180;2023-05-19T07:43:41;6.33;;;4.03;;
13250;SDS011;6692;50.710;7.180;2023-05-19T07:45:41;5.10;;;4.60;;
13250;SDS011;6692;50.710;7.180;2023-05-19T07:47:42;7.53;;;4.23;;
13250;SDS011;6692;50.710;7.180;2023-05-19T07:49:43;8.87;;;4.47;;
13250;SDS011;6692;50.710;7.180;2023-05-19T07:51:45;5.33;;;4.10;;
13250;SDS011;6692;50.710;7.180;2023-05-19T07:53:46;5.93;;;3.90;;
13250;SDS011;6692;50.710;7.180;2023-05-19T07:55:47;5.03;;;3.47;;
13250;SDS011;6692;50.710;7.180;2023-05-19T07:57:49;3.90;;;3.40;;
13250;SDS011;6692;50.710;7.180;2023-05-19T07:59:49;5.63;;;3.60;;
13250;SDS011;6692;50.710;7.180;2023-05-19T08:01:50;7.13;;;3.63;;
13250;SDS011;6692;50.710;7.180;2023-05-19T08:03:51;6.57;;;3.63;;
13250;SDS011;6692;50.710;7.180;2023-05-19T08:05:53;7.07;;;3.50;;
13250;SDS011;6692;50.710;7.180;2023-05-19T08:07:55;5.67;;;3.33;;
13250;SDS011;6692;50.710;7.180;2023-05-19T08:09:56;5.33;;;3.87;;
13250;SDS011;6692;50.710;7.180;2023-05-19T08:11:57;5.50;;;3.50;;
13250;SDS011;6692;50.710;7.180;2023-05-19T08:13:59;6.20;;;3.40;;
13250;SDS011;6692;50.710;7.180;2023-05-19T08:16:01;5.27;;;3.17;;
13250;SDS011;6692;50.710;7.180;2023-05-19T08:18:02;4.83;;;2.90;;
13250;SDS011;6692;50.710;7.180;2023-05-19T08:20:03;3.23;;;2.90;;
13250;SDS011;6692;50.710;7.180;2023-05-19T08:22:05;3.40;;;2.50;;
13250;SDS011;6692;50.710;7.180;2023-05-19T08:24:05;5.87;;;3.07;;
13250;SDS011;6692;50.710;7.180;2023-05-19T08:26:07;4.17;;;3.30;;
13250;SDS011;6692;50.710;7.180;2023-05-19T08:28:08;4.73;;;3.07;;
13250;SDS011;6692;50.710;7.180;2023-05-19T08:30:08;5.30;;;3.33;;
13250;SDS011;6692;50.710;7.180;2023-05-19T08:32:10;3.73;;;2.73;;
13250;SDS011;6692;50.710;7.180;2023-05-19T08:34:11;3.37;;;2.83;;
13250;SDS011;6692;50.710;7.180;2023-05-19T08:36:12;4.90;;;2.80;;
13250;SDS011;6692;50.710;7.180;2023-05-19T08:38:12;4.83;;;2.93;;
13250;SDS011;6692;50.710;7.180;2023-05-19T08:40:15;4.60;;;3.00;;
13250;SDS011;6692;50.710;7.180;2023-05-19T08:42:15;4.43;;;2.80;;
13250;SDS011;6692;50.710;7.180;2023-05-19T08:44:17;5.33;;;2.93;;
13250;SDS011;6692;50.710;7.180;2023-05-19T08:46:17;3.20;;;2.57;;
13250;SDS011;6692;50.710;7.180;2023-05-19T08:48:19;3.97;;;2.83;;
13250;SDS011;6692;50.710;7.180;2023-05-19T08:50:22;7.37;;;3.10;;
13250;SDS011;6692;50.710;7.180;2023-05-19T08:54:42;4.80;;;3.03;;
13250;SDS011;6692;50.710;7.180;2023-05-19T08:56:42;5.10;;;3.10;;
13250;SDS011;6692;50.710;7.180;2023-05-19T08:58:43;4.80;;;2.93;;
13250;SDS011;6692;50.710;7.180;2023-05-19T09:00:44;4.83;;;2.87;;
13250;SDS011;6692;50.710;7.180;2023-05-19T09:02:44;4.57;;;2.67;;
13250;SDS011;6692;50.710;7.180;2023-05-19T09:04:45;4.57;;;2.77;;
13250;SDS011;6692;50.710;7.180;2023-05-19T09:06:46;3.80;;;2.90;;
13250;SDS011;6692;50.710;7.180;2023-05-19T09:08:47;3.67;;;2.60;;
13250;SDS011;6692;50.710;7.180;2023-05-19T09:10:48;4.30;;;2.67;;
13250;SDS011;6692;50.710;7.180;2023-05-19T09:12:49;3.70;;;2.70;;
13250;SDS011;6692;50.710;7.180;2023-05-19T09:14:50;4.43;;;3.03;;
13250;SDS011;6692;50.710;7.180;2023-05-19T09:16:51;3.80;;;2.93;;
13250;SDS011;6692;50.710;7.180;2023-05-19T09:18:53;4.23;;;2.90;;
13250;SDS011;6692;50.710;7.180;2023-05-19T09:20:56;3.57;;;2.87;;
13250;SDS011;6692;50.710;7.180;2023-05-19T09:22:59;4.20;;;2.90;;
13250;SDS011;6692;50.710;7.180;2023-05-19T09:25:00;4.40;;;2.83;;
13250;SDS011;6692;50.710;7.180;2023-05-19T09:27:00;3.30;;;2.80;;
13250;SDS011;6692;50.710;7.180;2023-05-19T09:29:01;3.20;;;2.73;;
13250;SDS011;6692;50.710;7.180;2023-05-19T09:31:04;4.23;;;2.50;;
13250;SDS011;6692;50.710;7.180;2023-05-19T09:33:03;3.37;;;2.63;;
13250;SDS011;6692;50.710;7.180;2023-05-19T09:35:05;3.97;;;3.10;;
13250;SDS011;6692;50.710;7.180;2023-05-19T09:37:07;3.40;;;2.67;;
13250;SDS011;6692;50.710;7.180;2023-05-19T09:39:12;3.13;;;2.53;;
13250;SDS011;6692;50.710;7.180;2023-05-19T09:41:13;5.77;;;2.70;;
13250;SDS011;6692;50.710;7.180;2023-05-19T09:43:15;2.70;;;2.50;;
13250;SDS011;6692;50.710;7.180;2023-05-19T09:45:15;3.30;;;2.57;;
13250;SDS011;6692;50.710;7.180;2023-05-19T09:47:17;3.77;;;2.43;;
13250;SDS011;6692;50.710;7.180;2023-05-19T09:49:18;4.37;;;2.57;;
13250;SDS011;6692;50.710;7.180;2023-05-19T09:51:18;3.63;;;2.40;;
13250;SDS011;6692;50.710;7.180;2023-05-19T09:53:20;3.97;;;2.27;;
13250;SDS011;6692;50.710;7.180;2023-05-19T09:55:19;3.30;;;2.83;;
13250;SDS011;6692;50.710;7.180;2023-05-19T09:57:24;2.50;;;2.30;;
13250;SDS011;6692;50.710;7.180;2023-05-19T09:59:24;2.77;;;2.40;;
13250;SDS011;6692;50.710;7.180;2023-05-19T10:01:25;2.90;;;2.60;;
13250;SDS011;6692;50.710;7.180;2023-05-19T10:03:25;3.70;;;2.40;;
13250;SDS011;6692;50.710;7.180;2023-05-19T10:05:26;3.93;;;2.60;;
13250;SDS011;6692;50.710;7.180;2023-05-19T10:07:27;3.00;;;2.70;;
13250;SDS011;6692;50.710;7.180;2023-05-19T10:09:28;2.60;;;2.37;;
13250;SDS011;6692;50.710;7.180;2023-05-19T10:11:30;3.27;;;2.73;;
13250;SDS011;6692;50.710;7.180;2023-05-19T10:13:30;4.60;;;2.70;;
13250;SDS011;6692;50.710;7.180;2023-05-19T10:15:31;4.30;;;2.60;;
13250;SDS011;6692;50.710;7.180;2023-05-19T10:17:32;3.30;;;2.50;;
13250;SDS011;6692;50.710;7.180;2023-05-19T10:19:32;2.83;;;2.30;;
13250;SDS011;6692;50.710;7.180;2023-05-19T10:21:34;3.47;;;2.50;;
13250;SDS011;6692;50.710;7.180;2023-05-19T10:23:34;4.27;;;2.87;;
13250;SDS011;6692;50.710;7.180;2023-05-19T10:25:35;3.27;;;2.37;;
13250;SDS011;6692;50.710;7.180;2023-05-19T10:27:37;2.50;;;2.23;;
13250;SDS011;6692;50.710;7.180;2023-05-19T10:29:38;4.00;;;3.00;;
13250;SDS011;6692;50.710;7.180;2023-05-19T10:31:37;6.37;;;2.47;;
13250;SDS011;6692;50.710;7.180;2023-05-19T10:33:41;4.90;;;2.90;;
13250;SDS011;6692;50.710;7.180;2023-05-19T10:35:47;4.93;;;2.60;;
13250;SDS011;6692;50.710;7.180;2023-05-19T10:37:53;6.43;;;2.83;;
13250;SDS011;6692;50.710;7.180;2023-05-19T10:39:52;3.23;;;2.23;;
13250;SDS011;6692;50.710;7.180;2023-05-19T10:42:00;3.57;;;2.73;;
13250;SDS011;6692;50.710;7.180;2023-05-19T10:46:08;3.00;;;2.40;;
13250;SDS011;6692;50.710;7.180;2023-05-19T10:48:09;3.00;;;2.43;;
13250;SDS011;6692;50.710;7.180;2023-05-19T10:50:10;2.57;;;2.30;;
13250;SDS011;6692;50.710;7.180;2023-05-19T10:54:37;4.40;;;2.67;;
13250;SDS011;6692;50.710;7.180;2023-05-19T10:58:35;3.53;;;2.67;;
13250;SDS011;6692;50.710;7.180;2023-05-19T11:00:35;2.50;;;2.30;;
13250;SDS011;6692;50.710;7.180;2023-05-19T11:02:41;2.47;;;2.27;;
13250;SDS011;6692;50.710;7.180;2023-05-19T11:04:45;3.00;;;2.80;;
13250;SDS011;6692;50.710;7.180;2023-05-19T11:06:49;4.03;;;3.30;;
13250;SDS011;6692;50.710;7.180;2023-05-19T11:08:46;4.90;;;3.20;;
13250;SDS011;6692;50.710;7.180;2023-05-19T11:10:47;3.67;;;2.40;;
13250;SDS011;6692;50.710;7.180;2023-05-19T11:12:48;4.47;;;2.87;;
13250;SDS011;6692;50.710;7.180;2023-05-19T11:14:51;4.13;;;2.40;;
13250;SDS011;6692;50.710;7.180;2023-05-19T11:16:52;2.70;;;2.10;;
13250;SDS011;6692;50.710;7.180;2023-05-19T11:18:52;3.30;;;2.30;;
13250;SDS011;6692;50.710;7.180;2023-05-19T11:20:54;3.03;;;2.67;;
13250;SDS011;6692;50.710;7.180;2023-05-19T11:23:26;4.53;;;2.63;;
13250;SDS011;6692;50.710;7.180;2023-05-19T11:25:16;3.27;;;2.20;;
13250;SDS011;6692;50.710;7.180;2023-05-19T11:27:23;4.07;;;2.40;;
13250;SDS011;6692;50.710;7.180;2023-05-19T11:29:25;3.63;;;2.40;;
13250;SDS011;6692;50.710;7.180;2023-05-19T11:31:25;3.67;;;2.40;;
13250;SDS011;6692;50.710;7.180;2023-05-19T11:33:27;3.67;;;2.33;;
13250;SDS011;6692;50.710;7.180;2023-05-19T11:35:28;6.57;;;2.60;;
13250;SDS011;6692;50.710;7.180;2023-05-19T11:37:30;3.30;;;2.27;;
13250;SDS011;6692;50.710;7.180;2023-05-19T11:39:30;3.63;;;2.40;;
13250;SDS011;6692;50.710;7.180;2023-05-19T11:41:30;3.07;;;2.63;;
13250;SDS011;6692;50.710;7.180;2023-05-19T11:43:30;2.50;;;2.30;;
13250;SDS011;6692;50.710;7.180;2023-05-19T11:45:31;3.63;;;2.23;;
13250;SDS011;6692;50.710;7.180;2023-05-19T11:47:32;2.60;;;2.40;;
13250;SDS011;6692;50.710;7.180;2023-05-19T11:49:33;3.87;;;2.10;;
13250;SDS011;6692;50.710;7.180;2023-05-19T11:51:33;3.80;;;2.33;;
13250;SDS011;6692;50.710;7.180;2023-05-19T11:53:34;5.20;;;2.40;;
13250;SDS011;6692;50.710;7.180;2023-05-19T11:55:35;5.63;;;2.70;;
13250;SDS011;6692;50.710;7.180;2023-05-19T11:57:36;3.73;;;2.60;;
13250;SDS011;6692;50.710;7.180;2023-05-19T11:59:37;3.10;;;2.50;;
13250;SDS011;6692;50.710;7.180;2023-05-19T12:01:37;4.13;;;2.63;;
13250;SDS011;6692;50.710;7.180;2023-05-19T12:03:38;3.63;;;2.57;;
13250;SDS011;6692;50.710;7.180;2023-05-19T12:05:41;3.43;;;2.33;;
13250;SDS011;6692;50.710;7.180;2023-05-19T12:07:43;5.83;;;2.73;;
13250;SDS011;6692;50.710;7.180;2023-05-19T12:09:44;5.93;;;2.83;;
13250;SDS011;6692;50.710;7.180;2023-05-19T12:11:46;5.60;;;2.77;;
13250;SDS011;6692;50.710;7.180;2023-05-19T12:13:46;2.90;;;2.37;;
13250;SDS011;6692;50.710;7.180;2023-05-19T12:15:49;2.33;;;2.07;;
13250;SDS011;6692;50.710;7.180;2023-05-19T12:17:49;2.40;;;2.20;;
13250;SDS011;6692;50.710;7.180;2023-05-19T12:20:00;2.50;;;2.30;;
13250;SDS011;6692;50.710;7.180;2023-05-19T12:22:01;3.17;;;2.30;;
13250;SDS011;6692;50.710;7.180;2023-05-19T12:24:01;2.83;;;2.40;;
13250;SDS011;6692;50.710;7.180;2023-05-19T12:26:03;5.27;;;2.87;;
13250;SDS011;6692;50.710;7.180;2023-05-19T12:28:04;5.80;;;2.50;;
13250;SDS011;6692;50.710;7.180;2023-05-19T12:30:06;3.23;;;2.33;;
13250;SDS011;6692;50.710;7.180;2023-05-19T12:32:08;3.00;;;2.50;;
13250;SDS011;6692;50.710;7.180;2023-05-19T12:34:10;3.53;;;2.47;;